Accueil
METAR-TAF:

METAR-TAF

Aéroports :

Vitoria, Espagne

Aéroport de Vitoria-Gasteiz

latitude: 42-53N, longitude: 002-43W, altitude: 513 m

Observation

Le bulletin a été fait il y a 30 minutes, à 06:00 UTC
Vent 5 kt de sud-ouest
Température 2°C
Humidité 87%
Pression 1013 hPa
Visibilité: 9000 m
Quelques nuages à une hauteur de 1600 ft
Nuages fragmentés à une hauteur de 3500 ft
pluie faible

METAR: LEVT 120600Z 22005KT 9000 -RA FEW016 BKN035 02/00 Q1013

Heure: 07:30 (06:30 UTC)

Prévision

Le bulletin a été fait il y a 1 heure et 30 minutes, à 05:00 UTC
Prévision valable du 12 à 06 UTC au 13 à 06 UTC
Vent 9 kt de sud-ouest
Visibilité 10 km ou plus
Nuages épars à une hauteur de 1500 ft
Nuages fragmentés à une hauteur de 3000 ft

TAF: LEVT 120500Z 1206/1306 22009KT 9999 SCT015 BKN030 TX08/1213Z TN00/1206Z

Observations et prévisions météorologiques de plus de 4000 aéroports (messages METAR et TAF).

Les stations disponibles sont représentées par des disques jaunes et rouges sur la carte.

Passer la souris dessus pour voir le nom de la station.

Cliquer dessus pour voir les observations et prévisions météorologiques.

Pour changer de carte: cliquez sur les boutons verts avec une croix noire pour zoomer, sur le bouton vert avec un tiret pour effectuer un zoom arrière, ou sur les flèches vertes pour les cartes adjacentes.


METAR-TAF: